This is the latest recevied weather packets stored in our database for station/object DM3DP. If no packets are shown the sender has not sent any weather packets the latest 10 day(s).
| Time | Temp. | Humidity | Pressure | Rain* | Wind** | Luminosity | Snow |
|---|---|---|---|---|---|---|---|
| 1777691523 | 9.44° C | 79% | 1018.8 hPa | 0 mm | - | 0 W/m² | - |
| 1777691194 | 8.89° C | 79% | 1018.8 hPa | 0 mm | - | 0 W/m² | - |
| 1777690863 | 8.89° C | 79% | 1018.8 hPa | 0 mm | - | 0 W/m² | - |
| 1777690533 | 8.89° C | 80% | 1018.8 hPa | 0 mm | - | 0 W/m² | - |
| 1777690204 | 8.89° C | 80% | 1018.8 hPa | 0 mm | - | 0 W/m² | - |
| 1777689873 | 8.89° C | 80% | 1018.9 hPa | 0 mm | - | 0 W/m² | - |
| 1777689543 | 8.89° C | 80% | 1018.9 hPa | 0 mm | - | 0 W/m² | - |
| 1777689213 | 8.89° C | 80% | 1018.9 hPa | 0 mm | - | 0 W/m² | - |
| 1777688884 | 8.89° C | 80% | 1018.9 hPa | 0 mm | - | 0 W/m² | - |
| 1777687564 | 8.89° C | 79% | 1018.9 hPa | 0 mm | - | 0 W/m² | - |
| 1777674091 | 12.22° C | 67% | 1020.4 hPa | 0 mm | - | 0 W/m² | - |
| 1777673762 | 12.22° C | 67% | 1020.4 hPa | 0 mm | - | 0 W/m² | - |
| 1777673431 | 12.78° C | 67% | 1020.5 hPa | 0 mm | - | 0 W/m² | - |
| 1777671451 | 13.33° C | 63% | 1020.5 hPa | 0 mm | - | 0 W/m² | - |
| 1777671122 | 13.33° C | 63% | 1020.5 hPa | 0 mm | - | 0 W/m² | - |
| 1777670462 | 13.89° C | 62% | 1020.5 hPa | 0 mm | - | 0 W/m² | - |
| 1777670132 | 13.89° C | 61% | 1020.5 hPa | 0 mm | - | 0 W/m² | - |
| 1777669471 | 13.89° C | 59% | 1020.5 hPa | 0 mm | - | 0 W/m² | - |
| 1777667822 | 15° C | 57% | 1020.5 hPa | 0 mm | - | 0 W/m² | - |
| 1777666832 | 15.56° C | 55% | 1020.6 hPa | 0 mm | - | 0 W/m² | - |
| 1777666171 | 16.11° C | 53% | 1020.6 hPa | 0 mm | - | 0 W/m² | - |
| 1777665511 | 16.11° C | 53% | 1020.5 hPa | 0 mm | - | 0 W/m² | - |
| 1777664191 | 17.22° C | 50% | 1020.5 hPa | 0 mm | - | 0 W/m² | - |
| 1777663201 | 18.33° C | 47% | 1020.5 hPa | 0 mm | - | 0 W/m² | - |
| 1777662871 | 18.33° C | 47% | 1020.5 hPa | 0 mm | - | 0 W/m² | - |
* Rain latest hour (hover to see other rain measurements)
** Current wind speed in m/s (hover to see current wind gust speed)